sensor_id;sensor_type;location;lat;lon;timestamp;temperature;humidity
7248;DHT22;3665;51.034;13.642;2022-12-07T05:48:31;0.30;99.90
7248;DHT22;3665;51.034;13.642;2022-12-07T05:54:05;0.50;99.90
7248;DHT22;3665;51.034;13.642;2022-12-07T06:00:18;0.40;99.90
7248;DHT22;3665;51.034;13.642;2022-12-07T06:06:07;0.60;99.90
7248;DHT22;3665;51.034;13.642;2022-12-07T06:12:01;0.70;99.90
7248;DHT22;3665;51.034;13.642;2022-12-07T06:17:52;0.80;99.90
7248;DHT22;3665;51.034;13.642;2022-12-07T06:22:53;1.00;99.90
7248;DHT22;3665;51.034;13.642;2022-12-07T06:27:56;1.00;99.90
7248;DHT22;3665;51.034;13.642;2022-12-07T06:33:36;1.00;99.90
7248;DHT22;3665;51.034;13.642;2022-12-07T06:39:08;1.10;99.90
7248;DHT22;3665;51.034;13.642;2022-12-07T06:43:55;1.20;99.90
7248;DHT22;3665;51.034;13.642;2022-12-07T06:48:45;1.20;99.90
7248;DHT22;3665;51.034;13.642;2022-12-07T06:53:30;1.20;99.90
7248;DHT22;3665;51.034;13.642;2022-12-07T06:58:21;1.10;99.90
7248;DHT22;3665;51.034;13.642;2022-12-07T07:03:08;1.20;99.90
7248;DHT22;3665;51.034;13.642;2022-12-07T07:07:55;1.20;99.90
7248;DHT22;3665;51.034;13.642;2022-12-07T07:12:59;1.40;99.90
7248;DHT22;3665;51.034;13.642;2022-12-07T07:17:50;1.20;99.90
7248;DHT22;3665;51.034;13.642;2022-12-07T07:22:50;1.00;99.90
7248;DHT22;3665;51.034;13.642;2022-12-07T07:27:38;0.90;99.90
7248;DHT22;3665;51.034;13.642;2022-12-07T07:32:26;0.90;99.90
7248;DHT22;3665;51.034;13.642;2022-12-07T07:37:16;0.90;99.90
7248;DHT22;3665;51.034;13.642;2022-12-07T07:42:03;1.00;99.90
7248;DHT22;3665;51.034;13.642;2022-12-07T07:46:51;1.10;99.90
7248;DHT22;3665;51.034;13.642;2022-12-07T07:51:55;1.10;99.90
7248;DHT22;3665;51.034;13.642;2022-12-07T07:56:44;1.20;99.90
7248;DHT22;3665;51.034;13.642;2022-12-07T08:01:30;1.30;99.90
7248;DHT22;3665;51.034;13.642;2022-12-07T08:06:19;1.20;99.90
7248;DHT22;3665;51.034;13.642;2022-12-07T08:11:07;1.40;99.90
7248;DHT22;3665;51.034;13.642;2022-12-07T08:15:57;1.50;99.90
7248;DHT22;3665;51.034;13.642;2022-12-07T08:20:44;1.60;99.90
7248;DHT22;3665;51.034;13.642;2022-12-07T08:25:31;1.70;99.90
7248;DHT22;3665;51.034;13.642;2022-12-07T08:30:19;1.80;99.90
7248;DHT22;3665;51.034;13.642;2022-12-07T08:35:11;2.00;99.90
7248;DHT22;3665;51.034;13.642;2022-12-07T08:46:19;2.00;99.90
7248;DHT22;3665;51.034;13.642;2022-12-07T08:51:11;2.10;99.90
7248;DHT22;3665;51.034;13.642;2022-12-07T08:56:11;2.30;99.90
7248;DHT22;3665;51.034;13.642;2022-12-07T09:00:58;2.40;99.90
7248;DHT22;3665;51.034;13.642;2022-12-07T09:05:48;2.50;99.90
7248;DHT22;3665;51.034;13.642;2022-12-07T09:10:36;2.60;99.90
7248;DHT22;3665;51.034;13.642;2022-12-07T09:15:27;2.80;99.90
7248;DHT22;3665;51.034;13.642;2022-12-07T09:20:12;2.90;99.90
7248;DHT22;3665;51.034;13.642;2022-12-07T09:25:04;2.90;99.90
7248;DHT22;3665;51.034;13.642;2022-12-07T09:30:06;3.20;99.90
7248;DHT22;3665;51.034;13.642;2022-12-07T09:34:53;3.20;99.90
7248;DHT22;3665;51.034;13.642;2022-12-07T09:39:39;3.20;99.90
7248;DHT22;3665;51.034;13.642;2022-12-07T09:44:43;3.10;99.90
7248;DHT22;3665;51.034;13.642;2022-12-07T09:49:33;3.10;99.90
7248;DHT22;3665;51.034;13.642;2022-12-07T09:54:18;3.20;99.90
7248;DHT22;3665;51.034;13.642;2022-12-07T09:59:09;3.30;99.90
7248;DHT22;3665;51.034;13.642;2022-12-07T10:03:59;3.30;99.90
7248;DHT22;3665;51.034;13.642;2022-12-07T10:09:07;3.30;99.90
7248;DHT22;3665;51.034;13.642;2022-12-07T10:14:25;3.40;99.90
7248;DHT22;3665;51.034;13.642;2022-12-07T10:19:38;3.50;99.90
7248;DHT22;3665;51.034;13.642;2022-12-07T10:24:30;3.70;99.90
7248;DHT22;3665;51.034;13.642;2022-12-07T10:29:18;4.00;99.90
7248;DHT22;3665;51.034;13.642;2022-12-07T10:34:03;4.10;99.90
7248;DHT22;3665;51.034;13.642;2022-12-07T10:38:53;4.00;99.90
7248;DHT22;3665;51.034;13.642;2022-12-07T10:44:20;4.10;99.90
7248;DHT22;3665;51.034;13.642;2022-12-07T11:01:00;4.00;99.90
7248;DHT22;3665;51.034;13.642;2022-12-07T11:30:38;4.00;99.90
7248;DHT22;3665;51.034;13.642;2022-12-07T11:42:24;3.20;99.90
7248;DHT22;3665;51.034;13.642;2022-12-07T12:00:48;3.10;99.90
7248;DHT22;3665;51.034;13.642;2022-12-07T12:06:07;3.20;99.90
7248;DHT22;3665;51.034;13.642;2022-12-07T12:11:17;3.50;99.90
7248;DHT22;3665;51.034;13.642;2022-12-07T12:24:04;3.70;99.90
7248;DHT22;3665;51.034;13.642;2022-12-07T12:29:05;3.60;99.90
7248;DHT22;3665;51.034;13.642;2022-12-07T12:35:33;3.30;99.90
7248;DHT22;3665;51.034;13.642;2022-12-07T12:40:50;2.60;99.90
7248;DHT22;3665;51.034;13.642;2022-12-07T12:57:32;2.40;99.90
7248;DHT22;3665;51.034;13.642;2022-12-07T13:08:34;2.20;99.90
7248;DHT22;3665;51.034;13.642;2022-12-07T13:20:39;2.20;99.90
7248;DHT22;3665;51.034;13.642;2022-12-07T13:26:56;2.20;99.90
7248;DHT22;3665;51.034;13.642;2022-12-07T13:38:23;2.60;99.90
7248;DHT22;3665;51.034;13.642;2022-12-07T13:48:46;2.80;99.90
7248;DHT22;3665;51.034;13.642;2022-12-07T13:53:49;2.50;99.90
7248;DHT22;3665;51.034;13.642;2022-12-07T13:58:53;2.20;99.90
7248;DHT22;3665;51.034;13.642;2022-12-07T14:03:55;2.10;99.90
7248;DHT22;3665;51.034;13.642;2022-12-07T14:09:18;2.10;99.90
7248;DHT22;3665;51.034;13.642;2022-12-07T14:14:28;2.20;99.90
7248;DHT22;3665;51.034;13.642;2022-12-07T14:19:58;2.40;99.90
7248;DHT22;3665;51.034;13.642;2022-12-07T14:25:53;2.50;99.90
7248;DHT22;3665;51.034;13.642;2022-12-07T14:30:58;2.60;99.90
7248;DHT22;3665;51.034;13.642;2022-12-07T14:36:29;2.70;99.90
7248;DHT22;3665;51.034;13.642;2022-12-07T14:42:35;2.70;99.90
7248;DHT22;3665;51.034;13.642;2022-12-07T15:11:59;2.20;99.90
7248;DHT22;3665;51.034;13.642;2022-12-07T15:22:27;2.40;99.90
7248;DHT22;3665;51.034;13.642;2022-12-07T15:33:48;2.50;99.90
7248;DHT22;3665;51.034;13.642;2022-12-07T15:51:57;2.40;99.90
7248;DHT22;3665;51.034;13.642;2022-12-07T17:05:22;2.10;99.90
7248;DHT22;3665;51.034;13.642;2022-12-07T17:22:42;2.00;99.90
